メインページ
METAR-TAF:

METAR-TAF

空港 :

クウェート, クウェート

クウェート国際空港

緯度: 29-13N, 経度: 047-59E, 海抜: 55m

現時点の気象観測

当レポートは51分前の11:00(UTC)に作成
の風 13kt
気温 40°C
湿度 13%
気圧 1008 hPa
視程: 0700m
煙霧

METAR: OKBK 241100Z 36013KT 0700 R33L/0700N R33R/0750N HZ NSC 40/06 Q1008 NOSIG

時間: 14:51 (11:51 UTC)

予報

当レポートは1時間6分前の10:45(UTC)に作成
予報は24日の 12時(UTC)から 25日の 18時(UTC)まで有効
北/北西の風 10kt、最大20ktの突風を伴う
視程: 1500m
煙霧
24日の 14時(UTC)から 24日の 18時(UTC)まで一時的に
視程: 4000m
煙霧
24日の 18時(UTC)から 24日の 20時(UTC)まで徐々に
視程: 6000m

TAF: OKBK 241045Z 2412/2518 34010G20KT 1500 HZ NSC TEMPO 2414/2418 4000 HZ BECMG 2418/2420 6000

4,000以上の空港の気象観測と天気予報(METAR報とTAF報)

利用可能な観測所は地図上に黄色い丸と赤い丸で示す。

丸の上にカーソルを重ねると観測所名を参照できる。

次にクリックすると気象観測と天気予報を参照できる。

マップの切り替え:黒色「×」印の緑ボタンをクリックして拡大、「-」印の緑ボタンをクリックして縮小、緑色の三角印をクリックして隣りの地図に切り替え


METAR-TAF: